Time;durP1;ratioP1;P1;durP2;ratioP2;P2;SDS_P1;SDS_P2;PMS_P1;PMS_P2;Temp;Humidity;BMP_temperature;BMP_pressure;BME280_temperature;BME280_humidity;BME280_pressure;Samples;Min_cycle;Max_cycle;Signal;HPM_P1;HPM_P2
2023/10/07 00:01:22;;;;;;;12.50;5.30;;;15.10;99.90;;;;;;4972265;28;20499;-51
2023/10/07 00:03:49;;;;;;;19.17;5.20;;;15.00;99.90;;;;;;4974190;28;20058;-54
2023/10/07 00:06:16;;;;;;;16.88;5.93;;;15.10;99.90;;;;;;4973144;28;20255;-51
2023/10/07 00:08:42;;;;;;;18.95;5.43;;;15.00;99.90;;;;;;4974371;28;20045;-49
2023/10/07 00:11:17;;;;;;;17.20;5.45;;;15.10;99.90;;;;;;4972717;28;20683;-52
2023/10/07 00:13:43;;;;;;;18.25;5.72;;;15.10;99.90;;;;;;4973848;28;20112;-51
2023/10/07 00:16:17;;;;;;;14.07;5.50;;;15.10;99.90;;;;;;4972621;28;20528;-52
2023/10/07 00:18:43;;;;;;;12.65;5.45;;;15.10;99.90;;;;;;4973934;28;20032;-52
2023/10/07 00:21:15;;;;;;;14.65;5.60;;;15.00;99.90;;;;;;4973212;28;20038;-52
2023/10/07 00:23:42;;;;;;;16.88;5.55;;;15.00;99.90;;;;;;4973393;28;20041;-51
2023/10/07 00:26:09;;;;;;;17.52;5.90;;;14.90;99.90;;;;;;4972563;28;20045;-51
2023/10/07 00:28:36;;;;;;;15.93;5.90;;;14.90;99.90;;;;;;4974081;28;20045;-54
2023/10/07 00:31:12;;;;;;;12.40;5.13;;;14.90;99.90;;;;;;4991017;28;20168;-50
2023/10/07 00:34:14;;;;;;;15.57;5.30;;;15.00;99.90;;;;;;4958347;28;20737;-54
2023/10/07 00:39:19;;;;;;;16.38;5.90;;;14.80;99.90;;;;;;4974178;28;20041;-51
2023/10/07 00:41:48;;;;;;;14.45;5.78;;;14.80;99.90;;;;;;4972185;28;20129;-49
2023/10/07 00:44:33;;;;;;;14.40;5.65;;;14.80;99.90;;;;;;4972446;28;20141;-52
2023/10/07 00:49:38;;;;;;;17.10;5.72;;;14.90;99.90;;;;;;4980813;28;20037;-51
2023/10/07 00:52:05;;;;;;;15.38;6.55;;;14.90;99.90;;;;;;4972480;28;20062;-50
2023/10/07 01:02:51;;;;;;;22.33;6.43;;;14.80;99.90;;;;;;4972507;28;20034;-57
2023/10/07 01:05:27;;;;;;;15.60;6.20;;;14.80;99.90;;;;;;4972662;28;20026;-52
2023/10/07 01:07:53;;;;;;;18.48;6.13;;;14.70;99.90;;;;;;4979762;28;20052;-51
2023/10/07 01:10:25;;;;;;;15.65;6.57;;;14.80;99.90;;;;;;4974830;28;20050;-54
2023/10/07 01:12:51;;;;;;;10.50;5.55;;;14.70;99.90;;;;;;4978574;28;20139;-53
2023/10/07 01:17:47;;;;;;;17.20;6.35;;;14.50;99.90;;;;;;4973132;28;20069;-49
2023/10/07 01:20:14;;;;;;;17.02;6.20;;;14.80;99.90;;;;;;4972143;28;20034;-50
2023/10/07 01:23:02;;;;;;;15.95;6.78;;;14.90;99.90;;;;;;4973314;28;20142;-51
2023/10/07 01:25:29;;;;;;;14.57;6.28;;;14.80;99.90;;;;;;4980019;28;20132;-50
2023/10/07 01:27:55;;;;;;;19.20;7.20;;;14.80;99.90;;;;;;4973047;28;20129;-50
2023/10/07 01:30:28;;;;;;;15.52;6.40;;;14.90;99.90;;;;;;4971214;28;20238;-54
2023/10/07 01:33:02;;;;;;;17.65;7.07;;;14.90;99.90;;;;;;4973162;28;20058;-54
2023/10/07 01:35:32;;;;;;;19.02;7.22;;;14.70;99.90;;;;;;4980370;28;20066;-53
2023/10/07 01:38:18;;;;;;;19.95;7.40;;;14.70;99.90;;;;;;4972949;28;20494;-54
2023/10/07 01:43:19;;;;;;;22.48;7.85;;;14.70;99.90;;;;;;4971805;28;20132;-53
2023/10/07 01:45:47;;;;;;;19.20;7.47;;;14.70;99.90;;;;;;4993831;28;20108;-52
2023/10/07 01:48:13;;;;;;;24.98;8.32;;;14.80;99.90;;;;;;4973650;28;20087;-51
2023/10/07 01:50:40;;;;;;;19.58;7.47;;;14.70;99.90;;;;;;4972557;28;20058;-52
2023/10/07 01:53:07;;;;;;;20.70;8.20;;;14.70;99.90;;;;;;4971369;28;20771;-53
2023/10/07 01:55:42;;;;;;;18.42;8.40;;;14.80;99.90;;;;;;4972146;28;20042;-53
2023/10/07 01:58:14;;;;;;;18.55;8.07;;;14.80;99.90;;;;;;4969689;28;20125;-50
2023/10/07 02:00:51;;;;;;;20.05;8.43;;;14.80;99.90;;;;;;4972657;28;20935;-52
2023/10/07 02:03:23;;;;;;;18.67;7.93;;;14.70;99.90;;;;;;4981765;28;20030;-50
2023/10/07 02:05:50;;;;;;;21.13;8.23;;;14.80;99.90;;;;;;4977859;28;20038;-52
2023/10/07 02:08:21;;;;;;;17.77;8.40;;;14.50;99.90;;;;;;4971828;28;20035;-51
2023/10/07 02:10:49;;;;;;;23.30;8.55;;;14.80;99.90;;;;;;4972579;28;20509;-49
2023/10/07 02:13:19;;;;;;;22.75;8.50;;;14.70;99.90;;;;;;4974917;28;20058;-49
2023/10/07 02:15:46;;;;;;;22.02;9.18;;;14.80;99.90;;;;;;4976257;28;20031;-51
2023/10/07 02:18:17;;;;;;;0.00;0.00;;;14.80;99.90;;;;;;4975520;28;20549;-55
2023/10/07 02:20:49;;;;;;;0.00;0.00;;;14.20;99.90;;;;;;4976614;28;20121;-50
2023/10/07 02:23:21;;;;;;;0.00;0.00;;;14.80;99.90;;;;;;4975379;28;20062;-50
2023/10/07 02:25:49;;;;;;;15.68;6.72;;;14.80;99.90;;;;;;4976701;28;20479;-53
2023/10/07 02:28:15;;;;;;;23.98;9.32;;;15.60;99.90;;;;;;4975683;28;20034;-53
2023/10/07 02:31:00;;;;;;;19.40;9.50;;;14.70;99.90;;;;;;4976246;28;20462;-52
2023/10/07 02:33:27;;;;;;;22.20;10.00;;;14.80;99.90;;;;;;4975264;28;20060;-53
2023/10/07 02:35:57;;;;;;;25.45;9.95;;;14.80;99.90;;;;;;4975662;28;20081;-49
2023/10/07 02:38:35;;;;;;;22.15;9.90;;;14.80;99.90;;;;;;4974973;28;20042;-52
2023/10/07 02:41:16;;;;;;;21.52;10.18;;;14.70;99.90;;;;;;4975721;28;20604;-52
2023/10/07 02:43:43;;;;;;;24.63;11.10;;;14.80;99.90;;;;;;4966547;28;20551;-49
2023/10/07 02:46:22;;;;;;;22.73;11.30;;;14.70;99.90;;;;;;4999995;28;20037;-52
2023/10/07 02:48:48;;;;;;;31.13;11.48;;;14.70;99.90;;;;;;4980578;28;20046;-51
2023/10/07 02:51:18;;;;;;;23.88;11.55;;;14.80;99.90;;;;;;4974550;28;20038;-51
2023/10/07 02:53:44;;;;;;;26.27;12.13;;;14.80;99.90;;;;;;4975328;28;20034;-50
2023/10/07 02:56:21;;;;;;;26.48;11.10;;;14.90;99.90;;;;;;4974433;28;20060;-49
2023/10/07 02:59:03;;;;;;;29.60;11.68;;;15.00;99.90;;;;;;4969484;28;20046;-51
2023/10/07 03:01:29;;;;;;;26.38;11.68;;;15.00;99.90;;;;;;4982119;28;20111;-51
2023/10/07 03:03:55;;;;;;;25.27;11.25;;;15.10;99.90;;;;;;4975567;28;20045;-51
2023/10/07 03:06:28;;;;;;;22.45;11.68;;;14.80;99.90;;;;;;4972783;28;20106;-50
2023/10/07 03:09:00;;;;;;;24.40;11.88;;;15.00;99.90;;;;;;4982154;28;20075;-50
2023/10/07 03:11:48;;;;;;;28.05;11.75;;;15.00;99.90;;;;;;4980282;28;20670;-50
2023/10/07 03:14:23;;;;;;;28.02;12.05;;;15.10;99.90;;;;;;4974206;28;20035;-50
2023/10/07 03:16:59;;;;;;;26.48;12.18;;;15.00;99.90;;;;;;4974918;28;20462;-52
2023/10/07 03:19:33;;;;;;;25.77;11.88;;;14.50;99.90;;;;;;4973826;28;20042;-53
2023/10/07 03:22:09;;;;;;;25.80;12.00;;;15.80;99.90;;;;;;4975085;28;20637;-53
2023/10/07 03:24:59;;;;;;;23.77;12.55;;;13.50;99.90;;;;;;4980196;28;20466;-50
2023/10/07 03:27:25;;;;;;;27.17;11.82;;;15.00;99.90;;;;;;4973946;28;20145;-49
2023/10/07 03:32:53;;;;;;;27.83;12.68;;;15.50;99.90;;;;;;4988709;28;20050;-51
2023/10/07 03:35:35;;;;;;;8.18;4.00;;;15.20;99.90;;;;;;4974039;28;20526;-55
2023/10/07 03:38:10;;;;;;;0.00;0.00;;;15.00;99.90;;;;;;4974273;28;20506;-54
2023/10/07 03:40:38;;;;;;;0.00;0.00;;;15.20;99.90;;;;;;4972382;28;20133;-55
2023/10/07 03:43:06;;;;;;;0.00;0.00;;;15.40;99.90;;;;;;4973433;28;20528;-55
2023/10/07 03:45:32;;;;;;;0.00;0.00;;;15.10;99.90;;;;;;4995581;28;20061;-54
2023/10/07 03:47:58;;;;;;;0.00;0.00;;;15.10;99.90;;;;;;4994382;28;20049;-55
2023/10/07 03:50:34;;;;;;;0.00;0.00;;;15.10;99.90;;;;;;4972182;28;20042;-55
2023/10/07 03:53:05;;;;;;;0.00;0.00;;;15.10;99.90;;;;;;4974065;28;20759;-53
2023/10/07 03:55:31;;;;;;;18.15;9.30;;;15.20;99.90;;;;;;4973569;28;20039;-54
2023/10/07 03:57:56;;;;;;;32.17;14.27;;;15.10;99.90;;;;;;4974500;28;20397;-56
2023/10/07 04:00:28;;;;;;;33.97;13.73;;;15.10;99.90;;;;;;4972923;28;20096;-56
2023/10/07 04:02:54;;;;;;;27.27;14.63;;;15.20;99.90;;;;;;4974396;28;20549;-55
2023/10/07 04:05:31;;;;;;;24.73;12.60;;;15.30;99.90;;;;;;4972969;28;20042;-56
2023/10/07 04:07:57;;;;;;;27.05;13.48;;;15.30;99.90;;;;;;4974285;28;20049;-54
2023/10/07 04:10:31;;;;;;;28.70;13.55;;;15.30;99.90;;;;;;4972754;28;20035;-55
2023/10/07 04:12:57;;;;;;;27.90;14.32;;;15.30;99.90;;;;;;4974342;28;20149;-54
2023/10/07 04:15:30;;;;;;;27.27;14.23;;;15.40;99.90;;;;;;4972705;28;20087;-52
2023/10/07 04:17:56;;;;;;;36.00;15.27;;;15.40;99.90;;;;;;4974074;28;20034;-56
2023/10/07 04:20:25;;;;;;;28.35;13.10;;;15.20;99.90;;;;;;4973113;28;20117;-54
2023/10/07 04:23:03;;;;;;;24.95;13.82;;;15.40;99.90;;;;;;4974477;28;20416;-56
2023/10/07 04:25:31;;;;;;;11.60;7.03;;;15.30;99.90;;;;;;4981182;28;20069;-55
2023/10/07 04:27:57;;;;;;;0.00;0.00;;;15.40;99.90;;;;;;4972759;28;20916;-54
2023/10/07 04:30:26;;;;;;;0.00;0.00;;;15.40;99.90;;;;;;4972625;28;20494;-53
2023/10/07 04:33:00;;;;;;;26.10;11.95;;;15.40;99.90;;;;;;4973660;28;20463;-54
2023/10/07 04:35:32;;;;;;;27.23;14.07;;;15.40;99.90;;;;;;4972570;28;20030;-53
2023/10/07 04:41:43;;;;;;;27.33;14.65;;;15.40;99.90;;;;;;4973102;28;20293;-52
2023/10/07 04:43:47;;;;;;;24.50;13.63;;;15.40;99.90;;;;;;4958962;28;20073;-54
2023/10/07 04:46:28;;;;;;;32.42;14.65;;;15.30;99.90;;;;;;4978563;28;20031;-49
2023/10/07 04:48:55;;;;;;;27.10;13.52;;;15.40;99.90;;;;;;4973519;28;20147;-52
2023/10/07 04:53:58;;;;;;;30.35;13.27;;;15.40;99.90;;;;;;4973527;28;20585;-55
2023/10/07 04:56:25;;;;;;;20.42;11.50;;;15.50;99.90;;;;;;4972055;28;20053;-53
2023/10/07 04:58:55;;;;;;;0.00;0.00;;;15.40;99.90;;;;;;4973424;28;20465;-55
2023/10/07 05:01:33;;;;;;;18.77;9.63;;;15.40;99.90;;;;;;4969984;28;20116;-54
2023/10/07 05:04:04;;;;;;;24.55;12.35;;;15.50;99.90;;;;;;4973563;28;20140;-56
2023/10/07 05:06:30;;;;;;;23.38;12.48;;;15.50;99.90;;;;;;4979938;28;20038;-55
2023/10/07 05:08:56;;;;;;;24.17;12.77;;;15.40;99.90;;;;;;4972845;28;20112;-56
2023/10/07 05:11:26;;;;;;;23.95;12.25;;;15.50;99.90;;;;;;4971782;28;20042;-54
2023/10/07 05:13:52;;;;;;;27.90;13.18;;;15.40;99.90;;;;;;4973199;28;20637;-52
2023/10/07 05:16:19;;;;;;;24.05;12.30;;;15.40;99.90;;;;;;4972059;28;20050;-53
2023/10/07 05:18:45;;;;;;;26.02;12.38;;;15.40;99.90;;;;;;4982884;28;20037;-55
2023/10/07 05:21:11;;;;;;;23.95;11.63;;;15.40;99.90;;;;;;4974863;28;20108;-53
2023/10/07 05:23:37;;;;;;;25.55;11.55;;;15.40;99.90;;;;;;4972966;28;20133;-55
2023/10/07 05:26:03;;;;;;;26.75;11.77;;;15.50;99.90;;;;;;4972167;28;20038;-56
2023/10/07 05:28:32;;;;;;;22.35;11.70;;;15.50;99.90;;;;;;4972610;28;20038;-55
2023/10/07 05:31:02;;;;;;;25.27;12.38;;;15.50;99.90;;;;;;4996005;28;20038;-55
2023/10/07 05:33:28;;;;;;;28.10;11.75;;;15.50;99.90;;;;;;4979565;28;20045;-55
2023/10/07 05:36:13;;;;;;;18.85;11.48;;;15.60;99.90;;;;;;4973129;28;20102;-55
2023/10/07 05:38:47;;;;;;;24.08;11.57;;;15.60;99.90;;;;;;4978852;28;20046;-54
2023/10/07 05:41:17;;;;;;;22.08;11.13;;;15.70;99.90;;;;;;4971668;28;20033;-55
2023/10/07 05:43:44;;;;;;;21.73;11.23;;;15.70;99.90;;;;;;4972950;28;20069;-54
2023/10/07 05:46:10;;;;;;;19.05;10.85;;;15.70;99.90;;;;;;4998019;28;20038;-54
2023/10/07 05:48:38;;;;;;;23.20;10.95;;;15.70;99.90;;;;;;4991741;28;20038;-54
2023/10/07 05:51:07;;;;;;;26.35;11.32;;;15.60;99.90;;;;;;4975289;28;20124;-55
2023/10/07 05:53:36;;;;;;;23.10;11.23;;;15.70;99.90;;;;;;4976423;28;20092;-54
2023/10/07 05:56:05;;;;;;;25.80;11.68;;;15.70;99.90;;;;;;4975558;28;20034;-56
2023/10/07 05:58:32;;;;;;;23.77;10.88;;;15.70;99.90;;;;;;4976957;28;20818;-55
2023/10/07 06:00:58;;;;;;;20.67;10.43;;;15.70;99.90;;;;;;4976620;28;20026;-55
2023/10/07 06:03:25;;;;;;;18.95;11.25;;;15.70;99.90;;;;;;4975179;28;20736;-55
2023/10/07 06:05:52;;;;;;;19.23;10.10;;;;;;;;;;4976369;28;20592;-54
2023/10/07 06:08:18;;;;;;;27.10;10.65;;;15.70;99.90;;;;;;4975402;28;20057;-56
2023/10/07 06:10:51;;;;;;;19.60;10.05;;;15.70;99.90;;;;;;4976916;28;20446;-56
2023/10/07 06:13:18;;;;;;;22.23;10.13;;;16.00;99.90;;;;;;4975800;28;20113;-52
2023/10/07 06:15:45;;;;;;;25.75;10.02;;;15.60;99.90;;;;;;4974585;28;20058;-53
2023/10/07 06:18:11;;;;;;;22.92;10.50;;;15.70;99.90;;;;;;4975472;28;20037;-53
2023/10/07 06:20:46;;;;;;;15.27;7.72;;;15.70;99.90;;;;;;4977325;28;20034;-50
2023/10/07 06:23:15;;;;;;;16.33;8.25;;;15.70;99.90;;;;;;4975403;28;20342;-53
2023/10/07 06:25:48;;;;;;;11.00;5.93;;;15.70;99.90;;;;;;4976260;28;20045;-49
2023/10/07 06:28:24;;;;;;;23.80;9.60;;;;;;;;;;4975446;28;20136;-51
2023/10/07 06:30:49;;;;;;;17.38;9.45;;;15.60;99.90;;;;;;4998273;28;20087;-52
2023/10/07 06:33:15;;;;;;;19.88;9.13;;;15.90;99.90;;;;;;4976677;28;20491;-52
2023/10/07 06:35:41;;;;;;;18.48;8.48;;;15.80;99.90;;;;;;4975801;28;20038;-54
2023/10/07 06:38:07;;;;;;;22.05;9.60;;;;;;;;;;4974770;28;20058;-49
2023/10/07 06:40:35;;;;;;;20.65;9.45;;;15.90;99.90;;;;;;4976211;28;20046;-51
2023/10/07 06:43:01;;;;;;;21.73;10.00;;;15.90;99.90;;;;;;4975964;28;20101;-50
2023/10/07 06:45:36;;;;;;;24.17;10.13;;;15.50;99.90;;;;;;5003332;28;20155;-50
2023/10/07 06:48:06;;;;;;;20.35;10.13;;;15.90;99.90;;;;;;4978190;28;20042;-51
2023/10/07 06:50:32;;;;;;;23.88;9.73;;;15.90;99.90;;;;;;4975824;28;20030;-52
2023/10/07 06:52:58;;;;;;;18.35;8.43;;;15.90;99.90;;;;;;4975919;28;20062;-50
2023/10/07 06:55:24;;;;;;;19.83;9.60;;;15.90;99.90;;;;;;4974348;28;20133;-51
2023/10/07 06:57:56;;;;;;;20.17;9.18;;;15.90;99.90;;;;;;4974554;28;20034;-50
2023/10/07 07:00:23;;;;;;;19.02;9.63;;;16.00;99.90;;;;;;4974092;28;20510;-53
2023/10/07 07:02:57;;;;;;;23.38;9.80;;;15.90;99.90;;;;;;4975482;28;20061;-52
2023/10/07 07:05:24;;;;;;;22.08;9.65;;;16.10;99.90;;;;;;4974721;28;20048;-50
2023/10/07 07:07:53;;;;;;;24.65;9.55;;;16.10;99.90;;;;;;4975588;28;20346;-53
2023/10/07 07:10:30;;;;;;;18.48;8.60;;;16.10;99.90;;;;;;4981869;28;20367;-52
2023/10/07 07:13:12;;;;;;;19.15;9.10;;;16.10;99.90;;;;;;4980383;28;20201;-51
2023/10/07 07:15:39;;;;;;;26.10;9.10;;;16.10;99.90;;;;;;4981318;28;20201;-50
2023/10/07 07:20:48;;;;;;;19.88;8.32;;;17.00;99.90;;;;;;4974822;28;20514;-54
2023/10/07 07:23:21;;;;;;;19.98;8.02;;;16.10;99.90;;;;;;4974333;28;20542;-53
2023/10/07 07:26:30;;;;;;;19.60;8.30;;;14.60;99.90;;;;;;4975187;28;20076;-51
2023/10/07 07:28:42;;;;;;;26.10;8.57;;;16.20;99.90;;;;;;4972653;28;20446;-49
2023/10/07 07:31:11;;;;;;;20.83;8.55;;;16.30;99.90;;;;;;4998114;28;20045;-53
2023/10/07 07:33:37;;;;;;;21.85;8.25;;;16.30;99.90;;;;;;4975065;28;20482;-54
2023/10/07 07:36:18;;;;;;;19.55;7.55;;;16.40;99.90;;;;;;4973888;28;20121;-54
2023/10/07 07:38:47;;;;;;;15.80;8.13;;;16.40;99.90;;;;;;4974896;28;20022;-50
2023/10/07 07:41:34;;;;;;;23.48;7.82;;;16.40;99.90;;;;;;4973376;28;20064;-51
2023/10/07 07:43:59;;;;;;;19.23;7.85;;;16.40;99.90;;;;;;4974009;28;20137;-51
2023/10/07 07:46:28;;;;;;;22.20;7.95;;;15.90;99.90;;;;;;5001831;28;20579;-51
2023/10/07 07:48:55;;;;;;;22.65;7.50;;;;;;;;;;4986930;28;20225;-50
2023/10/07 07:51:24;;;;;;;17.17;7.18;;;16.10;99.90;;;;;;4973031;28;22076;-50
2023/10/07 07:53:51;;;;;;;19.30;7.90;;;16.70;99.90;;;;;;4974067;28;20704;-53
2023/10/07 07:56:22;;;;;;;14.73;7.18;;;16.50;99.90;;;;;;4973021;28;20030;-53
2023/10/07 07:58:48;;;;;;;19.30;8.00;;;16.50;99.90;;;;;;4969108;28;20497;-52
2023/10/07 08:01:18;;;;;;;14.93;7.30;;;16.60;99.90;;;;;;4972984;28;20034;-53
2023/10/07 08:03:44;;;;;;;20.70;7.53;;;16.60;99.90;;;;;;4974187;28;20352;-52
2023/10/07 08:06:19;;;;;;;21.05;7.55;;;16.50;99.90;;;;;;4972629;28;20583;-54
2023/10/07 08:08:46;;;;;;;25.80;7.35;;;16.60;99.90;;;;;;4973645;28;20649;-53
2023/10/07 08:11:14;;;;;;;17.15;7.25;;;16.70;99.90;;;;;;4972909;28;20129;-54
2023/10/07 08:13:40;;;;;;;17.85;7.32;;;16.60;99.90;;;;;;4974255;28;20034;-53
2023/10/07 08:16:14;;;;;;;19.73;7.47;;;;;;;;;;4972287;28;20452;-52
2023/10/07 08:18:40;;;;;;;17.42;7.03;;;16.90;99.90;;;;;;4974414;28;20501;-51
2023/10/07 08:21:13;;;;;;;15.88;7.10;;;16.20;99.90;;;;;;4973182;28;20034;-51
2023/10/07 08:23:47;;;;;;;18.77;7.15;;;16.60;99.90;;;;;;4959484;28;20121;-51
2023/10/07 08:26:20;;;;;;;17.08;7.05;;;17.30;99.90;;;;;;4972819;28;20361;-51
2023/10/07 08:28:47;;;;;;;15.35;7.28;;;16.70;99.90;;;;;;4967937;28;20038;-53
2023/10/07 08:31:57;;;;;;;15.90;7.47;;;16.90;99.90;;;;;;4979740;28;20694;-54
2023/10/07 08:36:36;;;;;;;15.02;7.15;;;16.60;99.90;;;;;;4973535;28;20038;-55
2023/10/07 08:39:06;;;;;;;15.02;7.07;;;17.10;99.90;;;;;;4972537;28;20122;-54
2023/10/07 08:41:32;;;;;;;19.90;7.20;;;16.90;99.90;;;;;;4973285;28;20034;-56
2023/10/07 08:44:06;;;;;;;20.60;7.38;;;;;;;;;;4973155;28;20049;-56
2023/10/07 08:46:39;;;;;;;18.10;7.60;;;15.50;99.90;;;;;;4972062;28;20473;-56
2023/10/07 08:49:13;;;;;;;16.55;7.15;;;16.80;99.90;;;;;;4971557;28;20030;-52
2023/10/07 08:51:42;;;;;;;21.02;7.35;;;16.80;99.90;;;;;;4973744;28;20118;-55
2023/10/07 08:54:17;;;;;;;21.70;7.75;;;16.90;99.90;;;;;;4971744;28;20132;-56
2023/10/07 08:56:50;;;;;;;18.58;7.47;;;16.90;99.90;;;;;;4970331;28;20038;-55
2023/10/07 08:59:16;;;;;;;;;;;16.80;99.90;;;;;;4972297;28;20050;-55
2023/10/07 09:01:44;;;;;;;14.95;7.50;;;16.80;99.90;;;;;;4973323;28;20373;-55
2023/10/07 09:04:11;;;;;;;19.45;7.85;;;16.80;99.90;;;;;;4971808;28;20038;-56
2023/10/07 09:06:45;;;;;;;14.43;7.63;;;16.90;99.90;;;;;;4965987;28;20446;-54
2023/10/07 09:09:12;;;;;;;15.90;7.75;;;;;;;;;;4972032;28;20517;-55
2023/10/07 09:11:40;;;;;;;16.15;7.90;;;;;;;;;;4972612;28;20046;-54
2023/10/07 09:14:11;;;;;;;16.70;7.05;;;;;;;;;;4971844;28;20635;-55
2023/10/07 09:16:38;;;;;;;17.80;7.85;;;17.10;99.90;;;;;;4972201;28;20109;-55
2023/10/07 09:19:12;;;;;;;19.00;7.22;;;;;;;;;;4971910;28;20031;-54
2023/10/07 09:21:39;;;;;;;16.50;7.07;;;;;;;;;;4969971;28;20057;-55
2023/10/07 09:24:20;;;;;;;20.63;7.32;;;;;;;;;;4972259;28;20551;-57
2023/10/07 09:26:58;;;;;;;14.52;6.55;;;;;;;;;;4972840;28;20045;-57
2023/10/07 09:29:25;;;;;;;17.42;6.97;;;;;;;;;;4976229;28;20713;-55
2023/10/07 09:31:58;;;;;;;11.63;6.25;;;;;;;;;;4985882;28;20100;-56
2023/10/07 09:34:41;;;;;;;15.30;6.32;;;;;;;;;;4970960;28;20096;-55
2023/10/07 09:37:11;;;;;;;17.55;6.47;;;;;;;;;;4966879;28;20282;-57
2023/10/07 09:39:44;;;;;;;17.45;6.38;;;;;;;;;;4957598;28;20111;-55
2023/10/07 09:42:26;;;;;;;15.35;6.15;;;;;;;;;;4972113;28;20085;-57
2023/10/07 09:44:55;;;;;;;13.80;5.78;;;18.00;99.90;;;;;;4969083;28;20542;-52
2023/10/07 09:47:21;;;;;;;13.02;5.82;;;18.20;99.90;;;;;;4971825;28;20045;-54
2023/10/07 09:49:48;;;;;;;12.93;6.20;;;18.20;99.90;;;;;;4972667;28;20081;-52
2023/10/07 09:52:16;;;;;;;14.73;6.20;;;18.10;99.90;;;;;;4971816;28;20117;-52
2023/10/07 09:55:06;;;;;;;16.73;5.70;;;;;;;;;;4972107;28;20485;-51
2023/10/07 09:57:42;;;;;;;15.82;6.07;;;;;;;;;;4991238;28;20030;-55
2023/10/07 10:03:20;;;;;;;13.88;5.25;;;;;;;;;;4968400;28;20495;-55
2023/10/07 10:05:56;;;;;;;11.50;5.10;;;;;;;;;;4962036;28;20788;-55
2023/10/07 10:08:56;;;;;;;14.32;5.07;;;18.30;99.90;;;;;;4971713;28;20521;-52
2023/10/07 10:11:47;;;;;;;12.77;5.25;;;18.40;99.90;;;;;;4971392;28;20254;-53
2023/10/07 10:16:54;;;;;;;13.57;4.97;;;18.50;99.90;;;;;;4972591;28;20747;-53
2023/10/07 10:19:56;;;;;;;11.32;4.57;;;18.50;99.90;;;;;;4972304;28;20027;-55
2023/10/07 10:22:22;;;;;;;0.00;0.00;;;18.50;99.90;;;;;;4971698;28;20057;-52
2023/10/07 10:24:54;;;;;;;0.00;0.00;;;18.60;99.90;;;;;;4972708;28;20113;-55
2023/10/07 10:27:20;;;;;;;0.00;0.00;;;18.60;99.90;;;;;;4971147;28;20031;-52
2023/10/07 10:30:03;;;;;;;0.00;0.00;;;18.70;99.90;;;;;;4972566;28;20412;-55
2023/10/07 10:32:30;;;;;;;0.00;0.00;;;18.80;99.90;;;;;;4979566;28;20034;-55
2023/10/07 10:35:00;;;;;;;0.00;0.00;;;18.70;99.90;;;;;;4976186;28;20030;-53
2023/10/07 10:37:28;;;;;;;0.00;0.00;;;18.80;99.90;;;;;;4975350;28;20114;-53
2023/10/07 10:39:53;;;;;;;0.00;0.00;;;18.80;99.90;;;;;;4973311;28;20033;-55
2023/10/07 10:42:21;;;;;;;0.00;0.00;;;18.90;99.90;;;;;;4974677;28;20046;-56
2023/10/07 10:44:48;;;;;;;0.00;0.00;;;19.00;99.90;;;;;;4976018;28;20030;-56
2023/10/07 10:47:18;;;;;;;0.00;0.00;;;19.00;99.90;;;;;;4974355;28;20034;-53
2023/10/07 10:49:44;;;;;;;0.00;0.00;;;19.10;99.90;;;;;;4975056;28;20046;-56
2023/10/07 10:52:12;;;;;;;0.00;0.00;;;19.10;99.90;;;;;;4974713;28;20034;-55
2023/10/07 10:54:39;;;;;;;0.00;0.00;;;19.10;99.90;;;;;;4976074;28;20438;-57
2023/10/07 10:57:08;;;;;;;0.00;0.00;;;19.10;99.90;;;;;;4974280;28;20101;-56
2023/10/07 10:59:48;;;;;;;2.47;0.85;;;19.10;99.90;;;;;;4973912;28;20030;-56
2023/10/07 11:02:22;;;;;;;9.80;4.60;;;19.10;99.90;;;;;;4973037;28;20151;-55
2023/10/07 11:04:51;;;;;;;10.30;4.18;;;19.20;99.90;;;;;;4975200;28;20408;-58
2023/10/07 11:07:18;;;;;;;12.88;4.45;;;19.30;99.90;;;;;;4973764;28;20302;-54
2023/10/07 11:09:48;;;;;;;14.50;4.22;;;19.20;99.90;;;;;;4974804;28;20502;-57
2023/10/07 11:12:16;;;;;;;14.00;3.80;;;19.30;99.90;;;;;;4973454;28;20433;-55
2023/10/07 11:14:43;;;;;;;9.95;4.35;;;19.40;99.90;;;;;;4974994;28;20053;-56
2023/10/07 11:17:10;;;;;;;13.25;3.92;;;19.40;99.90;;;;;;4971518;28;20085;-56
2023/10/07 11:19:42;;;;;;;10.65;4.35;;;19.40;99.90;;;;;;4974517;28;20434;-57
2023/10/07 11:22:18;;;;;;;11.88;4.60;;;19.40;99.90;;;;;;4970380;28;20101;-57
2023/10/07 11:24:46;;;;;;;12.98;4.28;;;19.50;99.90;;;;;;4968338;28;20127;-58
2023/10/07 11:27:12;;;;;;;8.75;3.92;;;19.60;99.90;;;;;;4973519;28;20053;-56
2023/10/07 11:29:38;;;;;;;13.32;4.18;;;19.60;99.90;;;;;;4980170;28;20049;-54
2023/10/07 11:32:07;;;;;;;11.68;4.20;;;19.60;99.90;;;;;;4976185;28;20096;-55
2023/10/07 11:34:38;;;;;;;10.65;4.32;;;19.70;99.90;;;;;;4974060;28;20092;-55
2023/10/07 11:37:09;;;;;;;13.15;4.50;;;19.70;99.90;;;;;;4973156;28;20108;-55
2023/10/07 11:39:44;;;;;;;9.02;4.05;;;19.80;99.90;;;;;;4958436;28;20038;-53
2023/10/07 11:42:11;;;;;;;13.65;4.25;;;19.80;99.90;;;;;;4972940;28;20125;-53
2023/10/07 11:44:38;;;;;;;9.50;3.88;;;19.80;99.90;;;;;;4971240;28;20235;-55
2023/10/07 11:47:06;;;;;;;11.77;4.07;;;19.90;99.90;;;;;;4972932;28;20040;-55
2023/10/07 11:49:34;;;;;;;11.98;4.30;;;20.00;99.90;;;;;;4973824;28;20040;-55
2023/10/07 11:52:06;;;;;;;10.85;4.05;;;20.10;99.90;;;;;;4973813;28;20490;-54
2023/10/07 11:54:37;;;;;;;10.35;4.30;;;20.10;99.90;;;;;;4979851;28;20399;-55
2023/10/07 11:57:07;;;;;;;11.30;4.38;;;20.10;99.90;;;;;;4972304;28;20035;-54
2023/10/07 11:59:33;;;;;;;8.73;3.78;;;20.10;99.90;;;;;;4974262;28;20045;-54
2023/10/07 12:02:09;;;;;;;9.02;4.05;;;20.20;99.90;;;;;;4973943;28;20549;-55
2023/10/07 12:04:48;;;;;;;10.95;3.92;;;20.20;99.90;;;;;;4980240;28;20061;-55
2023/10/07 12:07:16;;;;;;;9.15;3.60;;;20.20;99.90;;;;;;4972354;28;20042;-55
2023/10/07 12:09:43;;;;;;;10.65;4.13;;;20.10;99.90;;;;;;4974546;28;20109;-54
2023/10/07 12:12:11;;;;;;;10.98;3.83;;;20.10;99.90;;;;;;4973125;28;20041;-54
2023/10/07 12:14:37;;;;;;;12.50;4.22;;;20.00;99.90;;;;;;4973844;28;20037;-54
2023/10/07 12:17:07;;;;;;;11.40;3.83;;;20.00;99.90;;;;;;4972555;28;20034;-54
2023/10/07 12:19:34;;;;;;;11.88;3.95;;;20.00;99.90;;;;;;4973013;28;20159;-53
2023/10/07 12:22:00;;;;;;;15.80;4.53;;;20.10;99.90;;;;;;4973906;28;20045;-54
2023/10/07 12:24:26;;;;;;;9.40;3.78;;;20.10;99.90;;;;;;4973075;28;20788;-54
2023/10/07 12:26:54;;;;;;;11.20;4.00;;;20.10;99.90;;;;;;4973517;28;20482;-53
2023/10/07 12:29:23;;;;;;;12.43;4.18;;;20.10;99.90;;;;;;4975460;28;20073;-53
2023/10/07 12:31:49;;;;;;;11.75;3.92;;;20.20;99.90;;;;;;4992658;28;20050;-53
2023/10/07 12:34:18;;;;;;;14.77;4.57;;;20.30;99.90;;;;;;4972499;28;20100;-52
2023/10/07 12:36:44;;;;;;;10.38;3.72;;;20.30;99.90;;;;;;4979829;28;20181;-53
2023/10/07 12:39:14;;;;;;;10.00;4.18;;;20.20;99.90;;;;;;4971152;28;20089;-54
2023/10/07 12:41:43;;;;;;;9.00;3.90;;;20.20;99.90;;;;;;4965845;28;20035;-53
2023/10/07 12:44:09;;;;;;;11.77;4.10;;;20.20;99.90;;;;;;4971011;28;20450;-52
2023/10/07 12:46:39;;;;;;;11.43;3.95;;;20.40;99.90;;;;;;4972256;28;20503;-54
2023/10/07 12:49:10;;;;;;;12.75;5.03;;;20.20;99.90;;;;;;4971799;28;20101;-54
2023/10/07 12:51:41;;;;;;;11.23;4.38;;;19.90;99.90;;;;;;4972837;28;20038;-52
2023/10/07 12:54:10;;;;;;;8.63;3.72;;;20.20;99.90;;;;;;4971948;28;20031;-54
2023/10/07 12:56:42;;;;;;;10.43;3.92;;;20.30;99.90;;;;;;4972543;28;20045;-54
2023/10/07 12:59:23;;;;;;;12.25;4.43;;;20.30;99.90;;;;;;4969055;28;20030;-54
2023/10/07 13:01:51;;;;;;;11.95;4.13;;;20.40;99.90;;;;;;4967486;28;20682;-53
2023/10/07 13:04:25;;;;;;;7.93;4.03;;;20.50;99.90;;;;;;4971438;28;20068;-53
2023/10/07 13:07:09;;;;;;;9.27;4.00;;;20.50;99.90;;;;;;4972593;28;20133;-53
2023/10/07 13:09:35;;;;;;;8.02;4.10;;;20.40;99.90;;;;;;4970770;28;20121;-50
2023/10/07 13:12:11;;;;;;;13.23;4.18;;;20.50;99.90;;;;;;4977495;28;20042;-52
2023/10/07 13:14:40;;;;;;;11.90;4.45;;;20.40;99.90;;;;;;4972148;28;20045;-50
2023/10/07 13:17:07;;;;;;;9.40;4.25;;;20.40;99.90;;;;;;4971398;28;20429;-53
2023/10/07 13:19:36;;;;;;;11.40;4.65;;;20.50;99.90;;;;;;4972315;28;20026;-53
2023/10/07 13:22:05;;;;;;;9.13;4.32;;;20.50;99.90;;;;;;4971475;28;20035;-52
2023/10/07 13:24:34;;;;;;;11.60;4.10;;;20.70;99.90;;;;;;4973033;28;20042;-53
2023/10/07 13:27:02;;;;;;;12.02;4.22;;;20.70;99.90;;;;;;4971871;28;20073;-55
2023/10/07 13:29:28;;;;;;;13.43;4.88;;;20.60;99.90;;;;;;4985625;28;20045;-53
2023/10/07 13:31:53;;;;;;;9.00;4.35;;;20.60;99.90;;;;;;4996328;28;20748;-56
2023/10/07 13:34:21;;;;;;;12.48;4.40;;;20.70;99.90;;;;;;4972597;28;20034;-55
2023/10/07 13:36:46;;;;;;;17.10;4.20;;;20.80;99.90;;;;;;4972284;28;20125;-57
2023/10/07 13:39:18;;;;;;;10.60;4.68;;;20.70;99.90;;;;;;4971350;28;20523;-52